createdAt,value
2023-02-18T00:00:23.307Z,88.12
2023-02-18T00:01:21.314Z,88.23
2023-02-18T00:02:21.317Z,88.02
2023-02-18T00:03:22.870Z,87.51
2023-02-18T00:04:21.333Z,87.61
2023-02-18T00:05:21.280Z,87.71
2023-02-18T00:06:21.823Z,87.85
2023-02-18T00:07:21.264Z,87.61
2023-02-18T00:08:21.255Z,87.51
2023-02-18T00:09:21.259Z,87.51
2023-02-18T00:10:22.341Z,87.82
2023-02-18T00:11:22.332Z,87.92
2023-02-18T00:12:22.336Z,86.79
2023-02-18T00:13:22.321Z,87.00
2023-02-18T00:14:22.311Z,86.79
2023-02-18T00:15:22.289Z,86.49
2023-02-18T00:16:22.290Z,86.79
2023-02-18T00:17:22.284Z,86.79
2023-02-18T00:18:22.904Z,86.90
2023-02-18T00:19:22.288Z,86.79
2023-02-18T00:20:22.267Z,86.79
2023-02-18T00:21:22.253Z,86.29
2023-02-18T00:22:22.897Z,86.38
2023-02-18T00:23:22.231Z,86.29
2023-02-18T00:25:15.335Z,86.35
2023-02-18T00:26:15.320Z,86.49
2023-02-18T00:27:15.330Z,86.59
2023-02-18T00:28:15.299Z,86.59
2023-02-18T00:29:15.284Z,86.79
2023-02-18T00:30:15.327Z,86.69
2023-02-18T00:31:15.409Z,86.49
2023-02-18T00:32:15.392Z,87.00
2023-02-18T00:33:15.291Z,86.59
2023-02-18T00:34:16.350Z,87.04
2023-02-18T00:35:16.368Z,87.00
2023-02-18T00:36:16.361Z,86.79
2023-02-18T00:37:16.326Z,86.79
2023-02-18T00:38:16.306Z,87.71
2023-02-18T00:39:16.296Z,87.82
2023-02-18T00:40:16.313Z,87.82
2023-02-18T00:41:16.300Z,86.79
2023-02-18T00:42:16.306Z,86.73
2023-02-18T00:43:16.281Z,86.90
2023-02-18T00:44:16.272Z,87.04
2023-02-18T00:45:16.265Z,87.71
2023-02-18T00:46:16.332Z,86.59
2023-02-18T00:47:16.245Z,86.73
2023-02-18T00:48:16.239Z,86.43
2023-02-18T00:49:16.229Z,87.04
2023-02-18T00:50:16.228Z,86.94
2023-02-18T00:51:16.215Z,87.04
2023-02-18T00:52:16.196Z,87.14
2023-02-18T00:53:16.197Z,87.85
2023-02-18T00:54:16.236Z,87.85
2023-02-18T00:55:16.170Z,87.76
2023-02-18T00:56:16.171Z,87.76
2023-02-18T00:57:16.178Z,87.85
2023-02-18T00:58:17.784Z,87.65
2023-02-18T00:59:16.160Z,87.85
2023-02-18T01:00:16.141Z,87.85
2023-02-18T01:01:16.158Z,86.73
2023-02-18T01:02:16.119Z,86.83
2023-02-18T01:03:16.108Z,86.73
2023-02-18T01:04:16.115Z,86.63
2023-02-18T01:05:16.098Z,86.73
2023-02-18T01:06:16.101Z,86.90
2023-02-18T01:07:16.081Z,86.69
2023-02-18T01:08:16.071Z,87.35
2023-02-18T01:09:16.064Z,87.65
2023-02-18T01:10:18.344Z,86.53
2023-02-18T01:11:16.055Z,86.79
2023-02-18T01:12:16.043Z,86.79
2023-02-18T01:13:16.130Z,87.45
2023-02-18T01:14:17.295Z,87.85
2023-02-18T01:15:16.049Z,87.04
2023-02-18T01:16:16.039Z,86.83
2023-02-18T01:17:16.019Z,87.35
2023-02-18T01:18:16.050Z,87.24
2023-02-18T01:19:15.996Z,86.53
2023-02-18T01:20:15.996Z,86.63
2023-02-18T01:21:16.018Z,86.49
2023-02-18T01:22:15.978Z,86.43
2023-02-18T01:23:15.977Z,86.22
2023-02-18T01:24:15.952Z,86.29
2023-02-18T01:25:15.947Z,86.32
2023-02-18T01:26:15.954Z,86.59
2023-02-18T01:27:15.933Z,86.90
2023-02-18T01:28:15.934Z,86.53
2023-02-18T01:29:15.922Z,86.29
2023-02-18T01:30:16.011Z,86.53
2023-02-18T01:31:15.989Z,87.00
2023-02-18T01:32:16.011Z,86.83
2023-02-18T01:33:15.889Z,86.79
2023-02-18T01:34:15.873Z,86.69
2023-02-18T01:35:16.777Z,86.32
2023-02-18T01:36:15.849Z,86.29
2023-02-18T01:37:15.841Z,86.22
2023-02-18T01:38:15.848Z,86.32
2023-02-18T01:39:15.832Z,86.38
2023-02-18T01:40:15.817Z,86.02
2023-02-18T01:41:15.819Z,86.18
2023-02-18T01:42:15.802Z,86.12
2023-02-18T01:43:15.792Z,86.59
2023-02-18T01:44:15.795Z,86.22
2023-02-18T01:45:15.782Z,85.81
2023-02-18T01:46:15.798Z,86.02
2023-02-18T01:47:16.753Z,86.12
2023-02-18T01:48:15.777Z,86.22
2023-02-18T01:49:15.766Z,86.38
2023-02-18T01:50:15.739Z,86.08
2023-02-18T01:51:15.739Z,86.49
2023-02-18T01:52:15.721Z,86.32
2023-02-18T01:53:15.725Z,85.88
2023-02-18T01:54:15.704Z,85.88
2023-02-18T01:55:15.695Z,85.97
2023-02-18T01:56:15.691Z,86.12
2023-02-18T01:57:15.706Z,86.08
2023-02-18T01:58:15.683Z,86.02
2023-02-18T01:59:15.667Z,86.29
2023-02-18T02:00:15.656Z,86.38
2023-02-18T02:01:15.647Z,86.63
2023-02-18T02:02:15.692Z,86.32
2023-02-18T02:03:15.618Z,87.04
2023-02-18T02:04:15.703Z,86.32
2023-02-18T02:05:15.609Z,86.63
2023-02-18T02:06:15.631Z,86.53
2023-02-18T02:07:15.597Z,86.63
2023-02-18T02:08:15.626Z,87.04
2023-02-18T02:09:15.587Z,86.69
2023-02-18T02:10:15.591Z,86.83
2023-02-18T02:11:16.566Z,86.73
2023-02-18T02:12:15.572Z,86.79
2023-02-18T02:13:15.549Z,86.83
2023-02-18T02:14:15.531Z,87.82
2023-02-18T02:15:17.204Z,87.96
2023-02-18T02:16:15.561Z,87.10
2023-02-18T02:17:15.521Z,87.82
2023-02-18T02:18:15.510Z,87.51
2023-02-18T02:19:15.504Z,87.30
2023-02-18T02:20:15.502Z,86.83
2023-02-18T02:21:15.485Z,87.82
2023-02-18T02:22:15.479Z,87.71
2023-02-18T02:23:15.495Z,87.71
2023-02-18T02:24:15.472Z,87.71
2023-02-18T02:25:16.460Z,87.61
2023-02-18T02:26:15.484Z,87.51
2023-02-18T02:27:15.438Z,87.71
2023-02-18T02:28:15.446Z,87.71
2023-02-18T02:29:15.454Z,87.92
2023-02-18T02:30:15.459Z,87.82
2023-02-18T02:31:15.509Z,88.33
2023-02-18T02:32:15.418Z,88.74
2023-02-18T02:33:15.391Z,88.53
2023-02-18T02:34:15.375Z,88.98
2023-02-18T02:35:16.376Z,88.68
2023-02-18T02:36:15.361Z,89.04
2023-02-18T02:37:16.288Z,88.84
2023-02-18T02:38:15.342Z,88.84
2023-02-18T02:39:15.342Z,88.33
2023-02-18T02:40:15.340Z,87.85
2023-02-18T02:41:15.327Z,88.68
2023-02-18T02:42:15.317Z,88.43
2023-02-18T02:43:15.302Z,88.43
2023-02-18T02:44:15.328Z,88.57
2023-02-18T02:45:15.296Z,88.64
2023-02-18T02:46:15.359Z,88.78
2023-02-18T02:47:15.283Z,88.98
2023-02-18T02:48:15.277Z,89.35
2023-02-18T02:49:15.269Z,89.25
2023-02-18T02:50:15.253Z,89.39
2023-02-18T02:51:15.261Z,89.70
2023-02-18T02:52:15.284Z,89.59
2023-02-18T02:53:15.241Z,89.90
2023-02-18T02:54:15.254Z,90.21
2023-02-18T02:55:15.231Z,90.21
2023-02-18T02:56:15.209Z,90.11
2023-02-18T02:57:15.203Z,89.80
2023-02-18T02:58:15.195Z,90.15
2023-02-18T02:59:15.814Z,90.00
2023-02-18T03:00:15.198Z,90.21
2023-02-18T03:01:15.240Z,90.00
2023-02-18T03:02:15.162Z,90.00
2023-02-18T03:03:15.264Z,90.15
2023-02-18T03:04:15.152Z,90.11
2023-02-18T03:05:15.161Z,90.11
2023-02-18T03:06:15.717Z,90.00
2023-02-18T03:07:16.136Z,90.00
2023-02-18T03:08:15.121Z,90.31
2023-02-18T03:09:15.103Z,90.36
2023-02-18T03:10:15.112Z,90.11
2023-02-18T03:11:15.098Z,90.11
2023-02-18T03:12:16.861Z,90.15
2023-02-18T03:13:15.163Z,90.72
2023-02-18T03:14:15.095Z,91.07
2023-02-18T03:15:15.067Z,90.36
2023-02-18T03:16:15.126Z,90.97
2023-02-18T03:17:15.051Z,91.03
2023-02-18T03:18:15.042Z,90.97
2023-02-18T03:19:15.031Z,91.38
2023-02-18T03:20:15.036Z,91.48
2023-02-18T03:21:15.019Z,91.38
2023-02-18T03:22:15.013Z,91.17
2023-02-18T03:23:15.004Z,91.13
2023-02-18T03:24:15.001Z,91.27
2023-02-18T03:25:18.807Z,91.27
2023-02-18T03:26:15.018Z,90.97
2023-02-18T03:27:16.824Z,91.07
2023-02-18T03:28:14.974Z,90.97
2023-02-18T03:29:14.974Z,90.86
2023-02-18T03:30:14.981Z,90.97
2023-02-18T03:31:14.972Z,90.97
2023-02-18T03:32:14.989Z,90.86
2023-02-18T03:33:14.937Z,91.07
2023-02-18T03:34:14.924Z,91.17
2023-02-18T03:35:14.916Z,91.27
2023-02-18T03:36:14.898Z,91.48
2023-02-18T03:37:14.915Z,91.58
2023-02-18T03:38:14.886Z,91.48
2023-02-18T03:39:14.906Z,91.48
2023-02-18T03:40:14.894Z,91.58
2023-02-18T03:41:14.863Z,91.93
2023-02-18T03:42:14.856Z,91.63
2023-02-18T03:43:14.841Z,91.58
2023-02-18T03:44:14.848Z,91.52
2023-02-18T03:45:14.829Z,91.48
2023-02-18T03:46:14.907Z,91.38
2023-02-18T03:47:14.812Z,91.17
2023-02-18T03:48:14.807Z,90.97
2023-02-18T03:49:14.789Z,91.27
2023-02-18T03:50:14.812Z,90.97
2023-02-18T03:51:14.785Z,90.66
2023-02-18T03:52:14.770Z,90.86
2023-02-18T03:53:15.326Z,90.97
2023-02-18T03:54:14.769Z,90.36
2023-02-18T03:55:14.755Z,90.45
2023-02-18T03:56:14.750Z,90.86
2023-02-18T03:57:14.724Z,90.77
2023-02-18T03:58:15.313Z,90.66
2023-02-18T03:59:15.327Z,90.66
2023-02-18T04:00:14.703Z,90.66
2023-02-18T04:01:14.735Z,90.77
2023-02-18T04:02:14.684Z,90.56
2023-02-18T04:03:14.675Z,90.66
2023-02-18T04:04:14.682Z,90.36
2023-02-18T04:05:14.662Z,90.15
2023-02-18T04:06:14.668Z,90.05
2023-02-18T04:07:14.646Z,90.36
2023-02-18T04:08:14.634Z,90.15
2023-02-18T04:09:14.629Z,89.74
2023-02-18T04:10:14.622Z,90.15
2023-02-18T04:11:14.620Z,90.25
2023-02-18T04:12:14.607Z,90.05
2023-02-18T04:13:14.625Z,90.25
2023-02-18T04:14:14.587Z,89.94
2023-02-18T04:15:14.581Z,90.25
2023-02-18T04:16:14.619Z,90.15
2023-02-18T04:17:14.567Z,89.94
2023-02-18T04:18:14.558Z,89.84
2023-02-18T04:19:14.551Z,89.59
2023-02-18T04:20:14.562Z,89.74
2023-02-18T04:21:14.553Z,89.74
2023-02-18T04:22:14.545Z,89.84
2023-02-18T04:23:14.522Z,89.43
2023-02-18T04:24:14.512Z,89.84
2023-02-18T04:25:14.533Z,89.12
2023-02-18T04:26:14.502Z,89.03
2023-02-18T04:27:14.498Z,89.53
2023-02-18T04:28:14.488Z,89.53
2023-02-18T04:29:14.477Z,89.43
2023-02-18T04:30:14.532Z,89.12
2023-02-18T04:31:14.549Z,89.43
2023-02-18T04:32:14.467Z,89.43
2023-02-18T04:33:14.446Z,89.53
2023-02-18T04:34:14.443Z,89.84
2023-02-18T04:35:14.441Z,90.05
2023-02-18T04:36:14.432Z,90.05
2023-02-18T04:37:14.427Z,89.94
2023-02-18T04:38:14.413Z,89.53
2023-02-18T04:39:14.400Z,89.23
2023-02-18T04:40:15.403Z,89.12
2023-02-18T04:41:14.404Z,89.33
2023-02-18T04:42:14.376Z,89.64
2023-02-18T04:43:14.371Z,89.23
2023-02-18T04:44:14.368Z,89.43
2023-02-18T04:45:14.366Z,89.53
2023-02-18T04:46:14.376Z,89.43
2023-02-18T04:47:14.346Z,89.23
2023-02-18T04:48:14.340Z,89.43
2023-02-18T04:49:14.338Z,88.92
2023-02-18T04:50:14.335Z,89.43
2023-02-18T04:51:14.300Z,89.43
2023-02-18T04:52:14.300Z,89.64
2023-02-18T04:53:14.299Z,89.53
2023-02-18T04:54:14.292Z,89.53
2023-02-18T04:55:14.288Z,89.33
2023-02-18T04:56:14.280Z,89.43
2023-02-18T04:57:14.263Z,89.03
2023-02-18T04:58:14.268Z,89.43
2023-02-18T04:59:14.245Z,88.92
2023-02-18T05:00:14.254Z,88.71
2023-02-18T05:01:14.282Z,88.71
2023-02-18T05:02:14.222Z,88.71
2023-02-18T05:03:14.221Z,88.92
2023-02-18T05:04:14.247Z,89.23
2023-02-18T05:05:14.218Z,88.51
2023-02-18T05:06:14.220Z,88.62
2023-02-18T05:07:14.196Z,88.41
2023-02-18T05:08:14.184Z,88.41
2023-02-18T05:09:14.174Z,88.31
2023-02-18T05:10:14.170Z,88.31
2023-02-18T05:11:14.832Z,88.62
2023-02-18T05:12:14.210Z,88.20
2023-02-18T05:13:14.170Z,88.31
2023-02-18T05:14:14.136Z,88.31
2023-02-18T05:15:14.126Z,88.20
2023-02-18T05:16:14.233Z,87.85
2023-02-18T05:17:15.853Z,87.85
2023-02-18T05:18:14.110Z,87.96
2023-02-18T05:19:14.113Z,88.26
2023-02-18T05:20:14.093Z,87.85
2023-02-18T05:21:14.088Z,88.10
2023-02-18T05:22:14.090Z,88.37
2023-02-18T05:23:14.091Z,88.37
2023-02-18T05:24:14.071Z,88.47
2023-02-18T05:25:14.065Z,88.98
2023-02-18T05:26:14.050Z,88.92
2023-02-18T05:27:14.046Z,89.29
2023-02-18T05:28:14.761Z,89.29
2023-02-18T05:29:14.030Z,89.94
2023-02-18T05:30:14.052Z,90.45
2023-02-18T05:31:14.082Z,90.66
2023-02-18T05:32:13.995Z,90.86
2023-02-18T05:33:14.018Z,90.66
2023-02-18T05:34:14.004Z,91.48
2023-02-18T05:35:13.990Z,91.58
2023-02-18T05:36:13.985Z,91.73
2023-02-18T05:37:13.970Z,92.24
2023-02-18T05:38:13.960Z,92.03
2023-02-18T05:39:13.963Z,92.75
2023-02-18T05:40:13.942Z,93.06
2023-02-18T05:41:13.953Z,92.96
2023-02-18T05:42:13.951Z,92.65
2023-02-18T05:43:14.925Z,93.26
2023-02-18T05:44:13.914Z,93.88
2023-02-18T05:45:13.909Z,94.39
2023-02-18T05:46:13.914Z,94.29
2023-02-18T05:47:13.900Z,94.29
2023-02-18T05:48:13.885Z,94.49
2023-02-18T05:49:13.882Z,95.00
2023-02-18T05:50:13.865Z,95.21
2023-02-18T05:51:13.858Z,96.03
2023-02-18T05:52:13.861Z,95.82
2023-02-18T05:53:15.106Z,96.03
2023-02-18T05:54:13.843Z,95.82
2023-02-18T05:55:14.339Z,95.41
2023-02-18T05:56:13.833Z,95.87
2023-02-18T05:57:13.821Z,95.82
2023-02-18T05:58:14.763Z,95.97
2023-02-18T05:59:13.802Z,95.97
2023-02-18T06:00:13.804Z,96.38
2023-02-18T06:01:13.793Z,96.28
2023-02-18T06:02:13.781Z,96.17
2023-02-18T06:03:13.770Z,96.58
2023-02-18T06:04:13.764Z,96.28
2023-02-18T06:05:13.751Z,96.69
2023-02-18T06:06:13.769Z,96.58
2023-02-18T06:07:13.744Z,96.79
2023-02-18T06:08:13.734Z,96.58
2023-02-18T06:09:13.734Z,96.89
2023-02-18T06:10:13.719Z,96.99
2023-02-18T06:11:13.705Z,96.79
2023-02-18T06:12:13.700Z,96.69
2023-02-18T06:13:13.687Z,96.28
2023-02-18T06:14:13.682Z,96.58
2023-02-18T06:15:13.680Z,96.79
2023-02-18T06:16:13.686Z,96.58
2023-02-18T06:17:13.658Z,96.89
2023-02-18T06:18:14.657Z,96.79
2023-02-18T06:19:13.649Z,96.48
2023-02-18T06:20:13.697Z,96.28
2023-02-18T06:21:13.626Z,96.48
2023-02-18T06:22:13.625Z,95.76
2023-02-18T06:23:13.623Z,95.97
2023-02-18T06:24:13.610Z,96.17
2023-02-18T06:25:13.602Z,96.28
2023-02-18T06:26:13.595Z,95.97
2023-02-18T06:27:13.587Z,95.66
2023-02-18T06:28:13.581Z,95.05
2023-02-18T06:29:13.588Z,94.80
2023-02-18T06:30:13.603Z,94.49
2023-02-18T06:31:13.641Z,94.08
2023-02-18T06:32:13.660Z,94.29
2023-02-18T06:33:13.559Z,94.08
2023-02-18T06:34:13.535Z,93.98
2023-02-18T06:35:13.519Z,94.08
2023-02-18T06:36:14.268Z,94.39
2023-02-18T06:37:14.498Z,93.98
2023-02-18T06:38:13.526Z,93.67
2023-02-18T06:39:13.522Z,93.16
2023-02-18T06:40:14.495Z,92.55
2023-02-18T06:41:13.482Z,92.96
2023-02-18T06:42:14.265Z,93.06
2023-02-18T06:43:13.452Z,92.71
2023-02-18T06:44:14.271Z,92.91
2023-02-18T06:45:13.441Z,92.96
2023-02-18T06:46:13.471Z,92.30
2023-02-18T06:47:13.415Z,92.19
2023-02-18T06:48:14.267Z,91.99
2023-02-18T06:49:14.350Z,92.10
2023-02-18T06:50:13.394Z,92.50
2023-02-18T06:51:13.386Z,92.10
2023-02-18T06:52:13.377Z,91.99
2023-02-18T06:53:13.375Z,91.99
2023-02-18T06:54:13.360Z,92.40
2023-02-18T06:55:13.358Z,91.58
2023-02-18T06:56:13.355Z,91.48
2023-02-18T06:57:13.341Z,91.58
2023-02-18T06:58:13.336Z,91.69
2023-02-18T06:59:13.321Z,91.78
2023-02-18T07:00:13.327Z,91.33
2023-02-18T07:01:13.346Z,91.33
2023-02-18T07:02:13.302Z,91.13
2023-02-18T07:03:13.311Z,90.72
2023-02-18T07:04:13.292Z,91.03
2023-02-18T07:05:13.283Z,91.03
2023-02-18T07:06:13.275Z,91.03
2023-02-18T07:07:13.279Z,91.13
2023-02-18T07:08:13.272Z,91.54
2023-02-18T07:09:13.253Z,91.54
2023-02-18T07:10:13.246Z,91.23
2023-02-18T07:11:13.235Z,91.54
2023-02-18T07:12:13.241Z,91.64
2023-02-18T07:13:13.214Z,91.89
2023-02-18T07:14:13.226Z,92.05
2023-02-18T07:15:13.202Z,91.85
2023-02-18T07:16:13.272Z,91.74
2023-02-18T07:17:13.190Z,91.85
2023-02-18T07:18:13.183Z,92.25
2023-02-18T07:19:14.833Z,91.23
2023-02-18T07:20:14.166Z,91.64
2023-02-18T07:21:13.163Z,91.13
2023-02-18T07:22:13.159Z,91.54
2023-02-18T07:23:13.150Z,91.54
2023-02-18T07:24:13.132Z,91.95
2023-02-18T07:25:13.140Z,91.74
2023-02-18T07:26:13.110Z,91.85
2023-02-18T07:27:13.125Z,92.15
2023-02-18T07:28:13.101Z,91.85
2023-02-18T07:29:13.093Z,92.25
2023-02-18T07:30:13.877Z,92.01
2023-02-18T07:31:13.214Z,92.05
2023-02-18T07:32:13.122Z,92.56
2023-02-18T07:33:13.059Z,92.77
2023-02-18T07:34:13.066Z,93.07
2023-02-18T07:35:13.046Z,93.07
2023-02-18T07:36:13.040Z,93.48
2023-02-18T07:37:13.038Z,94.30
2023-02-18T07:38:13.029Z,93.69
2023-02-18T07:39:13.016Z,94.20
2023-02-18T07:40:13.005Z,94.20
2023-02-18T07:41:13.008Z,94.20
2023-02-18T07:42:12.994Z,94.30
2023-02-18T07:43:12.979Z,94.30
2023-02-18T07:44:12.981Z,95.02
2023-02-18T07:45:12.958Z,94.85
2023-02-18T07:46:13.179Z,95.06
2023-02-18T07:47:12.947Z,95.17
2023-02-18T07:48:12.945Z,95.88
2023-02-18T07:49:12.948Z,95.88
2023-02-18T07:50:13.782Z,95.88
2023-02-18T07:51:12.922Z,96.19
2023-02-18T07:52:12.976Z,96.49
2023-02-18T07:53:12.930Z,96.59
2023-02-18T07:54:12.907Z,96.64
2023-02-18T07:55:12.894Z,96.91
2023-02-18T07:56:12.883Z,96.95
2023-02-18T07:57:12.877Z,97.52
2023-02-18T07:58:12.870Z,97.72
2023-02-18T07:59:12.865Z,97.21
2023-02-18T08:00:12.849Z,97.11
2023-02-18T08:01:12.839Z,97.05
2023-02-18T08:02:12.898Z,97.15
2023-02-18T08:03:12.837Z,97.82
2023-02-18T08:04:12.845Z,97.92
2023-02-18T08:05:12.813Z,97.31
2023-02-18T08:06:12.842Z,97.41
2023-02-18T08:07:12.795Z,97.72
2023-02-18T08:08:12.793Z,97.62
2023-02-18T08:09:12.832Z,97.11
2023-02-18T08:10:15.370Z,97.00
2023-02-18T08:11:18.845Z,97.11
2023-02-18T08:12:14.783Z,97.11
2023-02-18T08:13:15.345Z,97.11
2023-02-18T08:15:19.232Z,97.00
2023-02-18T08:16:19.301Z,97.11
2023-02-18T08:18:28.018Z,97.21
2023-02-18T08:19:28.033Z,97.21
2023-02-18T08:20:30.412Z,97.31
2023-02-18T08:21:28.008Z,97.41
2023-02-18T08:22:28.045Z,97.00
2023-02-18T08:23:29.073Z,97.21
2023-02-18T08:24:29.075Z,97.21
2023-02-18T08:25:30.061Z,97.31
2023-02-18T08:26:30.047Z,97.37
2023-02-18T08:27:29.060Z,97.37
2023-02-18T08:28:29.033Z,96.55
2023-02-18T08:29:29.066Z,97.00
2023-02-18T08:30:29.220Z,97.00
2023-02-18T08:31:29.139Z,96.91
2023-02-18T08:32:29.009Z,96.59
2023-02-18T08:33:29.001Z,97.21
2023-02-18T08:34:28.996Z,97.00
2023-02-18T08:35:28.984Z,96.49
2023-02-18T08:36:28.988Z,96.49
2023-02-18T08:37:28.967Z,96.70
2023-02-18T08:38:29.953Z,96.59
2023-02-18T08:39:28.958Z,96.80
2023-02-18T08:40:28.947Z,96.91
2023-02-18T08:41:28.938Z,96.59
2023-02-18T08:42:28.922Z,96.08
2023-02-18T08:43:28.932Z,96.70
2023-02-18T08:44:28.911Z,96.29
2023-02-18T08:45:28.910Z,96.39
2023-02-18T08:46:35.489Z,96.19
2023-02-18T08:48:18.374Z,96.49
2023-02-18T08:48:29.873Z,96.19
2023-02-18T08:49:28.898Z,95.67
2023-02-18T08:50:28.861Z,95.78
2023-02-18T08:51:28.860Z,95.98
2023-02-18T08:52:28.845Z,95.98
2023-02-18T08:53:28.841Z,95.98
2023-02-18T08:54:28.863Z,96.19
2023-02-18T08:55:28.838Z,96.29
2023-02-18T08:56:28.823Z,95.67
2023-02-18T08:57:28.820Z,95.98
2023-02-18T08:58:29.278Z,95.37
2023-02-18T08:59:28.790Z,95.26
2023-02-18T09:00:28.800Z,95.06
2023-02-18T09:01:28.867Z,94.96
2023-02-18T09:02:28.781Z,94.75
2023-02-18T09:03:28.769Z,94.14
2023-02-18T09:04:28.795Z,94.65
2023-02-18T09:05:29.684Z,94.85
2023-02-18T09:06:28.748Z,94.65
2023-02-18T09:07:28.744Z,94.45
2023-02-18T09:08:28.725Z,95.06
2023-02-18T09:09:28.719Z,94.34
2023-02-18T09:10:28.706Z,94.45
2023-02-18T09:11:28.705Z,93.73
2023-02-18T09:12:28.694Z,92.97
2023-02-18T09:13:28.681Z,92.56
2023-02-18T09:14:28.679Z,92.66
2023-02-18T09:15:29.208Z,93.52
2023-02-18T09:16:28.653Z,92.77
2023-02-18T09:17:28.643Z,92.97
2023-02-18T09:18:29.636Z,93.18
2023-02-18T09:19:28.636Z,91.85
2023-02-18T09:20:28.731Z,92.05
2023-02-18T09:21:28.628Z,91.44
2023-02-18T09:22:28.605Z,91.74
2023-02-18T09:23:28.607Z,91.64
2023-02-18T09:24:28.608Z,92.05
2023-02-18T09:25:28.584Z,91.23
2023-02-18T09:26:28.578Z,91.03
2023-02-18T09:27:28.580Z,91.85
2023-02-18T09:28:28.575Z,90.88
2023-02-18T09:29:28.541Z,91.29
2023-02-18T09:30:28.559Z,91.33
2023-02-18T09:31:28.693Z,91.13
2023-02-18T09:32:34.687Z,90.17
2023-02-18T09:33:30.517Z,89.56
2023-02-18T09:34:28.505Z,89.50
2023-02-18T09:35:28.496Z,90.06
2023-02-18T09:36:28.494Z,89.45
2023-02-18T09:37:28.482Z,89.15
2023-02-18T09:38:28.477Z,88.84
2023-02-18T09:39:28.488Z,88.74
2023-02-18T09:40:28.521Z,88.53
2023-02-18T09:41:28.454Z,88.84
2023-02-18T09:42:28.449Z,87.71
2023-02-18T09:43:28.437Z,87.57
2023-02-18T09:44:28.432Z,87.16
2023-02-18T09:45:28.435Z,87.57
2023-02-18T09:46:28.437Z,86.96
2023-02-18T09:47:28.402Z,86.44
2023-02-18T09:48:28.409Z,86.30
2023-02-18T09:49:28.396Z,85.69
2023-02-18T09:50:28.500Z,85.69
2023-02-18T09:51:28.394Z,84.47
2023-02-18T09:52:28.365Z,85.28
2023-02-18T09:53:28.352Z,85.38
2023-02-18T09:54:28.355Z,84.88
2023-02-18T09:55:28.343Z,84.53
2023-02-18T09:56:28.331Z,83.30
2023-02-18T09:57:28.341Z,83.51
2023-02-18T09:58:30.811Z,83.30
2023-02-18T09:59:30.263Z,83.71
2023-02-18T10:00:28.306Z,83.61
2023-02-18T10:01:28.317Z,83.06
2023-02-18T10:02:28.283Z,83.20
2023-02-18T10:03:28.281Z,84.12
2023-02-18T10:04:28.277Z,83.67
2023-02-18T10:05:28.253Z,83.06
2023-02-18T10:06:28.268Z,82.75
2023-02-18T10:07:29.216Z,82.24
2023-02-18T10:08:29.246Z,83.87
2023-02-18T10:09:28.247Z,82.65
2023-02-18T10:10:28.220Z,83.92
2023-02-18T10:11:28.208Z,84.22
2023-02-18T10:12:28.309Z,83.81
2023-02-18T10:13:28.209Z,83.20
2023-02-18T10:14:28.213Z,83.51
2023-02-18T10:15:28.291Z,83.40
2023-02-18T10:16:28.294Z,83.10
2023-02-18T10:17:28.165Z,83.81
2023-02-18T10:19:28.788Z,84.42
2023-02-18T10:20:28.176Z,84.42
2023-02-18T10:21:28.151Z,83.61
2023-02-18T10:22:28.132Z,83.92
2023-02-18T10:23:28.132Z,84.33
2023-02-18T10:24:28.116Z,83.71
2023-02-18T10:25:28.125Z,82.39
2023-02-18T10:26:28.706Z,83.24
2023-02-18T10:27:28.781Z,83.24
2023-02-18T10:28:28.145Z,83.40
2023-02-18T10:29:28.071Z,82.59
2023-02-18T10:30:28.220Z,83.51
2023-02-18T10:31:28.163Z,82.28
2023-02-18T10:32:28.075Z,82.39
2023-02-18T10:33:28.046Z,82.28
2023-02-18T10:34:28.028Z,82.42
2023-02-18T10:35:28.041Z,81.98
2023-02-18T10:36:28.018Z,82.18
2023-02-18T10:37:28.022Z,82.35
2023-02-18T10:38:27.993Z,82.28
2023-02-18T10:39:28.010Z,82.24
2023-02-18T10:40:27.995Z,82.04
2023-02-18T10:41:27.972Z,81.23
2023-02-18T10:42:27.981Z,81.84
2023-02-18T10:43:27.964Z,80.61
2023-02-18T10:44:27.956Z,79.69
2023-02-18T10:45:27.954Z,78.98
2023-02-18T10:46:27.954Z,78.84
2023-02-18T10:47:27.933Z,79.18
2023-02-18T10:48:27.932Z,78.37
2023-02-18T10:49:27.908Z,78.12
2023-02-18T10:50:27.896Z,78.33
2023-02-18T10:51:27.893Z,77.62
2023-02-18T10:52:27.893Z,77.62
2023-02-18T10:53:27.877Z,78.12
2023-02-18T10:54:28.716Z,77.82
2023-02-18T10:55:27.865Z,78.23
2023-02-18T10:56:28.761Z,77.62
2023-02-18T10:57:27.842Z,78.53
2023-02-18T10:58:28.022Z,78.16
2023-02-18T10:59:27.828Z,77.86
2023-02-18T11:00:27.851Z,78.16
2023-02-18T11:01:28.822Z,78.37
2023-02-18T11:02:27.821Z,77.92
2023-02-18T11:03:27.796Z,77.92
2023-02-18T11:04:27.797Z,77.62
2023-02-18T11:05:27.803Z,77.62
2023-02-18T11:06:27.769Z,77.51
2023-02-18T11:07:27.763Z,76.93
2023-02-18T11:08:27.762Z,77.65
2023-02-18T11:09:27.752Z,78.16
2023-02-18T11:10:29.298Z,78.16
2023-02-18T11:11:28.493Z,78.47
2023-02-18T11:12:27.730Z,78.27
2023-02-18T11:13:27.719Z,78.67
2023-02-18T11:14:27.711Z,78.91
2023-02-18T11:15:27.719Z,78.88
2023-02-18T11:16:27.806Z,79.32
2023-02-18T11:17:27.690Z,79.63
2023-02-18T11:18:28.214Z,79.87
2023-02-18T11:19:27.677Z,79.77
2023-02-18T11:20:27.673Z,79.93
2023-02-18T11:21:28.212Z,79.77
2023-02-18T11:22:27.644Z,80.58
2023-02-18T11:23:27.653Z,80.24
2023-02-18T11:24:27.628Z,80.28
2023-02-18T11:25:27.627Z,80.07
2023-02-18T11:26:27.651Z,80.69
2023-02-18T11:27:27.612Z,80.69
2023-02-18T11:28:27.618Z,80.48
2023-02-18T11:29:27.591Z,80.58
2023-02-18T11:30:27.612Z,80.28
2023-02-18T11:31:27.682Z,79.97
2023-02-18T11:32:27.580Z,80.69
2023-02-18T11:33:27.569Z,80.69
2023-02-18T11:34:27.561Z,80.58
2023-02-18T11:35:27.542Z,80.28
2023-02-18T11:36:27.545Z,80.18
2023-02-18T11:37:27.529Z,79.97
2023-02-18T11:38:27.522Z,80.18
2023-02-18T11:39:27.537Z,80.28
2023-02-18T11:40:27.506Z,80.58
2023-02-18T11:41:27.498Z,80.69
2023-02-18T11:42:27.502Z,80.79
2023-02-18T11:43:27.489Z,80.85
2023-02-18T11:44:27.481Z,80.38
2023-02-18T11:45:27.466Z,80.58
2023-02-18T11:46:29.805Z,80.79
2023-02-18T11:47:30.289Z,81.10
2023-02-18T11:48:27.442Z,81.30
2023-02-18T11:49:27.438Z,81.30
2023-02-18T11:50:27.431Z,81.81
2023-02-18T11:51:28.304Z,81.81
2023-02-18T11:52:27.454Z,81.95
2023-02-18T11:53:27.406Z,82.36
2023-02-18T11:54:28.383Z,82.56
2023-02-18T11:55:27.430Z,82.87
2023-02-18T11:56:27.385Z,82.97
2023-02-18T11:57:27.397Z,82.97
2023-02-18T11:58:27.369Z,84.00
2023-02-18T11:59:27.366Z,83.79
2023-02-18T12:00:27.359Z,83.89
2023-02-18T12:01:27.346Z,82.97
2023-02-18T12:02:27.350Z,82.97
2023-02-18T12:03:27.344Z,83.89
2023-02-18T12:04:27.359Z,83.59
2023-02-18T12:05:28.355Z,84.09
2023-02-18T12:06:27.308Z,84.20
2023-02-18T12:07:27.325Z,84.30
2023-02-18T12:08:27.301Z,84.61
2023-02-18T12:09:27.303Z,83.75
2023-02-18T12:10:27.281Z,84.16
2023-02-18T12:11:27.280Z,84.26
2023-02-18T21:24:23.326Z,99.69
2023-02-18T21:25:23.304Z,99.59
2023-02-18T21:27:31.263Z,99.69
2023-02-18T21:28:31.244Z,99.49
2023-02-18T21:29:34.141Z,99.69
2023-02-18T21:30:32.376Z,99.79
2023-02-18T21:31:32.522Z,99.99
2023-02-18T21:32:32.435Z,99.79
2023-02-18T21:33:33.113Z,99.99
2023-02-18T21:34:32.313Z,99.90
2023-02-18T21:35:32.316Z,99.79
2023-02-18T21:36:32.281Z,99.54
2023-02-18T21:37:32.271Z,99.79
2023-02-18T21:38:32.294Z,99.69
2023-02-18T21:39:32.268Z,99.69
2023-02-18T21:40:32.263Z,99.69
2023-02-18T21:41:32.228Z,99.79
2023-02-18T21:42:32.229Z,99.69
2023-02-18T21:43:32.227Z,99.79
2023-02-18T21:44:41.754Z,99.90
2023-02-18T21:45:34.219Z,99.99
2023-02-18T21:46:32.266Z,99.99
2023-02-18T21:47:32.206Z,99.99
2023-02-18T21:48:32.174Z,99.99
2023-02-18T21:49:32.187Z,99.99
2023-02-18T21:50:32.162Z,99.99
2023-02-18T21:51:32.160Z,99.99
2023-02-18T21:52:32.152Z,99.99
2023-02-18T21:53:32.196Z,99.99
2023-02-18T21:54:32.147Z,99.99
2023-02-18T21:55:32.138Z,99.99
2023-02-18T21:56:32.141Z,99.99
2023-02-18T21:57:32.115Z,99.99
2023-02-18T21:58:32.690Z,99.99
2023-02-18T22:00:38.420Z,99.99
2023-02-18T22:01:38.507Z,99.99
2023-02-18T22:02:38.366Z,99.99
2023-02-18T22:03:38.361Z,99.99
2023-02-18T22:04:38.357Z,99.99
2023-02-18T22:05:38.352Z,99.99
2023-02-18T22:06:38.345Z,99.99
2023-02-18T22:07:38.335Z,99.99
2023-02-18T22:08:38.327Z,99.99
2023-02-18T22:09:38.336Z,99.99
2023-02-18T22:10:38.324Z,99.99